Terminal Aerodrome Forecast
Issued by NWS St Louis, MO

Home | Current Version | Previous Version | Text Only | Print | Product List | Glossary On
Versions: 1 2 3 4 5 6 7 8 9 10 11 12 13 14
000
FTUS43 KLSX 172320
TAFCOU
TAF
KCOU 172320Z 1800/1824 07005KT P6SM SCT040
     FM180200 07004KT P6SM FEW250
     FM181100 VRB03KT 4SM BR FEW250
     FM181300 18004KT P6SM FEW040=

USA.gov is the U.S. government's official web portal to all federal, state and local government web resources and services.